Time;durP1;ratioP1;P1;durP2;ratioP2;P2;SDS_P1;SDS_P2;PMS_P1;PMS_P2;Temp;Humidity;BMP_temperature;BMP_pressure;BME280_temperature;BME280_humidity;BME280_pressure;Samples;Min_cycle;Max_cycle;Signal;HPM_P1;HPM_P2
2023/12/29 00:02:24;;;;;;;;;;;;;;;;;;5090434;28;19927;-69
2023/12/29 00:04:51;;;;;;;;;;;;;;;;;;5089753;28;19927;-71
2023/12/29 00:07:18;;;;;;;;;;;;;;;;;;5091683;28;19924;-70
2023/12/29 00:09:45;;;;;;;;;;;;;;;;;;5090897;28;19924;-69
2023/12/29 00:12:12;;;;;;;;;;;;;;;;;;5089964;28;19924;-69
2023/12/29 00:14:39;;;;;;;;;;;;;;;;;;5091624;28;19924;-69
2023/12/29 00:17:06;;;;;;;;;;;;;;;;;;5090287;28;19973;-70
2023/12/29 00:19:33;;;;;;;;;;;;;;;;;;5090636;28;19924;-69
2023/12/29 00:22:02;;;;;;;;;;;;;;;;;;5088661;28;19962;-69
2023/12/29 00:24:31;;;;;;;;;;;;;;;;;;5089991;28;20310;-70
2023/12/29 00:26:58;;;;;;;;;;;;;;;;;;5083177;28;20022;-70
2023/12/29 00:29:27;;;;;;;;;;;;;;;;;;5072828;28;20019;-71
2023/12/29 00:31:55;;;;;;;;;;;;;;;;;;5087252;28;19936;-70
2023/12/29 00:34:22;;;;;;;;;;;;;;;;;;5090459;28;19928;-70
2023/12/29 00:36:49;;;;;;;;;;;;;;;;;;5091557;28;19924;-70
2023/12/29 00:39:16;;;;;;;;;;;;;;;;;;5085154;28;19925;-70
2023/12/29 00:41:43;;;;;;;;;;;;;;;;;;5089526;28;20393;-70
2023/12/29 00:44:10;;;;;;;;;;;;;;;;;;5090365;28;20147;-70
2023/12/29 00:46:37;;;;;;;;;;;;;;;;;;5091097;28;19931;-70
2023/12/29 00:49:04;;;;;;;;;;;;;;;;;;5084851;28;19932;-70
2023/12/29 00:51:31;;;;;;;;;;;;;;;;;;5089258;28;19924;-70
2023/12/29 00:53:58;;;;;;;;;;;;;;;;;;5088936;28;19986;-70
2023/12/29 00:56:25;;;;;;;;;;;;;;;;;;5084422;28;19924;-70
2023/12/29 00:58:52;;;;;;;;;;;;;;;;;;5088367;28;19970;-70
2023/12/29 01:01:20;;;;;;;;;;;;;;;;;;5091560;28;19924;-69
2023/12/29 01:03:47;;;;;;;;;;;;;;;;;;5090996;28;19932;-70
2023/12/29 01:06:14;;;;;;;;;;;;;;;;;;5089971;28;19924;-70
2023/12/29 01:08:41;;;;;;;;;;;;;;;;;;5088962;28;19931;-70
2023/12/29 01:11:09;;;;;;;;;;;;;;;;;;5090895;28;19923;-70
2023/12/29 01:13:37;;;;;;;;;;;;;;;;;;5090622;28;19947;-70
2023/12/29 01:16:04;;;;;;;;;;;;;;;;;;5090531;28;19971;-70
2023/12/29 01:18:31;;;;;;;;;;;;;;;;;;5093510;28;20344;-70
2023/12/29 01:20:58;;;;;;;;;;;;;;;;;;5094514;28;19932;-69
2023/12/29 01:23:25;;;;;;;;;;;;;;;;;;5094312;28;19924;-70
2023/12/29 01:25:52;;;;;;;;;;;;;;;;;;5092655;28;19935;-70
2023/12/29 01:28:19;;;;;;;;;;;;;;;;;;5092507;28;20273;-69
2023/12/29 01:30:46;;;;;;;;;;;;;;;;;;5083295;28;19924;-69
2023/12/29 01:33:13;;;;;;;;;;;;;;;;;;5082240;28;19925;-70
2023/12/29 01:35:40;;;;;;;;;;;;;;;;;;5093492;28;19985;-70
2023/12/29 01:38:07;;;;;;;;;;;;;;;;;;5084736;28;19986;-70
2023/12/29 01:40:34;;;;;;;;;;;;;;;;;;5093728;28;19977;-69
2023/12/29 01:43:01;;;;;;;;;;;;;;;;;;5094185;28;20341;-69
2023/12/29 01:45:29;;;;;;;;;;;;;;;;;;5092858;28;19932;-69
2023/12/29 01:47:56;;;;;;;;;;;;;;;;;;5090241;28;19936;-69
2023/12/29 01:50:23;;;;;;;;;;;;;;;;;;5089814;28;19924;-69
2023/12/29 01:52:50;;;;;;;;;;;;;;;;;;5088150;28;19924;-70
2023/12/29 01:55:17;;;;;;;;;;;;;;;;;;5093556;28;19925;-69
2023/12/29 01:57:44;;;;;;;;;;;;;;;;;;5089108;28;19924;-69
2023/12/29 02:00:11;;;;;;;;;;;;;;;;;;5090790;28;19988;-69
2023/12/29 02:02:38;;;;;;;;;;;;;;;;;;5091538;28;19924;-69
2023/12/29 02:05:05;;;;;;;;;;;;;;;;;;5092104;28;19924;-69
2023/12/29 02:07:32;;;;;;;;;;;;;;;;;;5091053;28;19928;-70
2023/12/29 02:10:00;;;;;;;;;;;;;;;;;;5093554;28;19931;-69
2023/12/29 02:12:27;;;;;;;;;;;;;;;;;;5084135;28;19939;-69
2023/12/29 02:14:54;;;;;;;;;;;;;;;;;;5091543;28;19928;-69
2023/12/29 02:17:21;;;;;;;;;;;;;;;;;;5091971;28;19925;-69
2023/12/29 02:19:49;;;;;;;;;;;;;;;;;;5093332;28;19932;-69
2023/12/29 02:22:16;;;;;;;;;;;;;;;;;;5093102;28;19928;-70
2023/12/29 02:24:44;;;;;;;;;;;;;;;;;;5093620;28;19971;-70
2023/12/29 02:27:11;;;;;;;;;;;;;;;;;;5082165;28;19932;-70
2023/12/29 02:29:38;;;;;;;;;;;;;;;;;;5085378;28;19937;-70
2023/12/29 02:32:05;;;;;;;;;;;;;;;;;;5092272;28;19959;-71
2023/12/29 02:34:32;;;;;;;;;;;;;;;;;;5093570;28;19924;-70
2023/12/29 02:36:59;;;;;;;;;;;;;;;;;;5088991;28;20435;-70
2023/12/29 02:39:26;;;;;;;;;;;;;;;;;;5092781;28;19975;-70
2023/12/29 02:41:53;;;;;;;;;;;;;;;;;;5092378;28;20420;-70
2023/12/29 02:44:20;;;;;;;;;;;;;;;;;;5091837;28;20000;-70
2023/12/29 02:46:47;;;;;;;;;;;;;;;;;;5090029;28;20374;-70
2023/12/29 02:49:14;;;;;;;;;;;;;;;;;;5092410;28;20375;-70
2023/12/29 02:51:41;;;;;;;;;;;;;;;;;;5092134;28;19985;-69
2023/12/29 02:54:08;;;;;;;;;;;;;;;;;;5088939;28;19928;-70
2023/12/29 02:56:36;;;;;;;;;;;;;;;;;;5086568;28;19985;-71
2023/12/29 02:59:03;;;;;;;;;;;;;;;;;;5085426;28;19932;-69
2023/12/29 03:01:30;;;;;;;;;;;;;;;;;;5090720;28;19924;-70
2023/12/29 03:03:57;;;;;;;;;;;;;;;;;;5090568;28;19928;-69
2023/12/29 03:06:24;;;;;;;;;;;;;;;;;;5090397;28;19977;-70
2023/12/29 03:08:52;;;;;;;;;;;;;;;;;;5091688;28;19954;-69
2023/12/29 03:11:19;;;;;;;;;;;;;;;;;;5088746;28;20280;-69
2023/12/29 03:13:46;;;;;;;;;;;;;;;;;;5091955;28;19930;-69
2023/12/29 03:16:13;;;;;;;;;;;;;;;;;;5090471;28;19924;-70
2023/12/29 03:18:41;;;;;;;;;;;;;;;;;;5092146;28;19924;-70
2023/12/29 03:21:08;;;;;;;;;;;;;;;;;;5091696;28;19928;-69
2023/12/29 03:23:35;;;;;;;;;;;;;;;;;;5092122;28;19924;-69
2023/12/29 03:26:02;;;;;;;;;;;;;;;;;;5087636;28;19928;-69
2023/12/29 03:28:29;;;;;;;;;;;;;;;;;;5086607;28;19926;-69
2023/12/29 03:30:56;;;;;;;;;;;;;;;;;;5091973;28;19977;-69
2023/12/29 03:33:23;;;;;;;;;;;;;;;;;;5090516;28;19985;-69
2023/12/29 03:35:51;;;;;;;;;;;;;;;;;;5085112;28;19927;-69
2023/12/29 03:38:18;;;;;;;;;;;;;;;;;;5090462;28;20323;-69
2023/12/29 03:40:45;;;;;;;;;;;;;;;;;;5091236;28;20276;-69
2023/12/29 03:43:12;;;;;;;;;;;;;;;;;;5089419;28;20371;-69
2023/12/29 03:45:39;;;;;;;;;;;;;;;;;;5088538;28;20438;-69
2023/12/29 03:48:06;;;;;;;;;;;;;;;;;;5091559;28;19977;-69
2023/12/29 03:50:33;;;;;;;;;;;;;;;;;;5088856;28;19985;-69
2023/12/29 03:53:00;;;;;;;;;;;;;;;;;;5090849;28;19970;-69
2023/12/29 03:55:27;;;;;;;;;;;;;;;;;;5089828;28;19924;-69
2023/12/29 03:57:54;;;;;;;;;;;;;;;;;;5087897;28;20424;-69
2023/12/29 04:00:21;;;;;;;;;;;;;;;;;;5090024;28;19924;-69
2023/12/29 04:02:48;;;;;;;;;;;;;;;;;;5084951;28;19924;-70
2023/12/29 04:05:15;;;;;;;;;;;;;;;;;;5088825;28;19924;-70
2023/12/29 04:07:42;;;;;;;;;;;;;;;;;;5087363;28;19974;-70
2023/12/29 04:10:10;;;;;;;;;;;;;;;;;;5091723;28;19924;-70
2023/12/29 04:12:37;;;;;;;;;;;;;;;;;;5091420;28;19948;-70
2023/12/29 04:15:04;;;;;;;;;;;;;;;;;;5088019;28;19936;-70
2023/12/29 04:17:31;;;;;;;;;;;;;;;;;;5085578;28;19985;-70
2023/12/29 04:19:59;;;;;;;;;;;;;;;;;;5090329;28;19928;-71
2023/12/29 04:22:26;;;;;;;;;;;;;;;;;;5091457;28;19992;-71
2023/12/29 04:24:53;;;;;;;;;;;;;;;;;;5091494;28;19924;-70
2023/12/29 04:27:20;;;;;;;;;;;;;;;;;;5083974;28;19928;-70
2023/12/29 04:29:48;;;;;;;;;;;;;;;;;;5090730;28;19924;-70
2023/12/29 04:32:15;;;;;;;;;;;;;;;;;;5077301;28;19925;-70
2023/12/29 04:34:43;;;;;;;;;;;;;;;;;;5085150;28;20383;-70
2023/12/29 04:37:10;;;;;;;;;;;;;;;;;;5080576;28;19971;-71
2023/12/29 04:39:37;;;;;;;;;;;;;;;;;;5090410;28;19932;-70
2023/12/29 04:42:04;;;;;;;;;;;;;;;;;;5089060;28;19928;-70
2023/12/29 04:44:31;;;;;;;;;;;;;;;;;;5089756;28;19924;-70
2023/12/29 04:46:58;;;;;;;;;;;;;;;;;;5087260;28;19932;-70
2023/12/29 04:49:25;;;;;;;;;;;;;;;;;;5090976;28;19939;-70
2023/12/29 04:51:52;;;;;;;;;;;;;;;;;;5095518;28;19928;-71
2023/12/29 04:54:19;;;;;;;;;;;;;;;;;;5089766;28;19930;-71
2023/12/29 04:56:46;;;;;;;;;;;;;;;;;;5089869;28;19947;-71
2023/12/29 04:59:13;;;;;;;;;;;;;;;;;;5094922;28;20374;-71
2023/12/29 05:01:40;;;;;;;;;;;;;;;;;;5091208;28;20570;-70
2023/12/29 05:04:07;;;;;;;;;;;;;;;;;;5092879;28;19928;-71
2023/12/29 05:06:34;;;;;;;;;;;;;;;;;;5090250;28;20568;-70
2023/12/29 05:09:01;;;;;;;;;;;;;;;;;;5092976;28;20306;-70
2023/12/29 05:11:28;;;;;;;;;;;;;;;;;;5093353;28;19924;-69
2023/12/29 05:13:56;;;;;;;;;;;;;;;;;;5091916;28;20374;-69
2023/12/29 05:16:23;;;;;;;;;;;;;;;;;;5090449;28;19934;-69
2023/12/29 05:18:50;;;;;;;;;;;;;;;;;;5087088;28;19928;-69
2023/12/29 05:21:17;;;;;;;;;;;;;;;;;;5090234;28;19924;-69
2023/12/29 05:23:44;;;;;;;;;;;;;;;;;;5086454;28;19981;-69
2023/12/29 05:26:11;;;;;;;;;;;;;;;;;;5083874;28;19928;-69
2023/12/29 05:28:38;;;;;;;;;;;;;;;;;;5092469;28;19977;-68
2023/12/29 05:31:05;;;;;;;;;;;;;;;;;;5093037;28;19992;-70
2023/12/29 05:33:32;;;;;;;;;;;;;;;;;;5088471;28;19932;-69
2023/12/29 05:35:59;;;;;;;;;;;;;;;;;;5085145;28;19931;-69
2023/12/29 05:38:26;;;;;;;;;;;;;;;;;;5090514;28;19924;-70
2023/12/29 05:40:53;;;;;;;;;;;;;;;;;;5090306;28;19928;-69
2023/12/29 05:43:20;;;;;;;;;;;;;;;;;;5093702;28;19931;-69
2023/12/29 05:45:47;;;;;;;;;;;;;;;;;;5090555;28;19924;-70
2023/12/29 05:48:15;;;;;;;;;;;;;;;;;;5090213;28;19928;-69
2023/12/29 05:50:42;;;;;;;;;;;;;;;;;;5091375;28;19928;-69
2023/12/29 05:53:09;;;;;;;;;;;;;;;;;;5084055;28;19925;-69
2023/12/29 05:55:36;;;;;;;;;;;;;;;;;;5087456;28;19931;-69
2023/12/29 05:58:03;;;;;;;;;;;;;;;;;;5089989;28;19924;-69
2023/12/29 06:00:30;;;;;;;;;;;;;;;;;;5092894;28;19924;-70
2023/12/29 06:02:57;;;;;;;;;;;;;;;;;;5090581;28;20032;-69
2023/12/29 06:05:24;;;;;;;;;;;;;;;;;;5084289;28;19935;-69
2023/12/29 06:07:51;;;;;;;;;;;;;;;;;;5085405;28;19967;-70
2023/12/29 06:10:18;;;;;;;;;;;;;;;;;;5073900;28;19925;-70
2023/12/29 06:12:45;;;;;;;;;;;;;;;;;;5084428;28;20334;-70
2023/12/29 06:15:13;;;;;;;;;;;;;;;;;;5080203;28;19928;-70
2023/12/29 06:17:40;;;;;;;;;;;;;;;;;;5090340;28;19925;-70
2023/12/29 06:20:07;;;;;;;;;;;;;;;;;;5093236;28;19924;-70
2023/12/29 06:22:34;;;;;;;;;;;;;;;;;;5094367;28;19966;-69
2023/12/29 06:25:02;;;;;;;;;;;;;;;;;;5080101;28;19924;-70
2023/12/29 06:27:32;;;;;;;;;;;;;;;;;;5088499;28;20383;-70
2023/12/29 06:29:59;;;;;;;;;;;;;;;;;;5092141;28;19928;-69
2023/12/29 06:32:26;;;;;;;;;;;;;;;;;;5080890;28;20334;-69
2023/12/29 06:34:53;;;;;;;;;;;;;;;;;;5077349;28;20340;-69
2023/12/29 06:37:20;;;;;;;;;;;;;;;;;;5083281;28;19924;-69
2023/12/29 06:39:47;;;;;;;;;;;;;;;;;;5088084;28;19981;-69
2023/12/29 06:42:14;;;;;;;;;;;;;;;;;;5091372;28;20353;-69
2023/12/29 06:44:41;;;;;;;;;;;;;;;;;;5087553;28;19948;-69
2023/12/29 06:47:09;;;;;;;;;;;;;;;;;;5089792;28;19961;-69
2023/12/29 06:49:36;;;;;;;;;;;;;;;;;;5089161;28;19931;-68
2023/12/29 06:52:03;;;;;;;;;;;;;;;;;;5092216;28;19938;-69
2023/12/29 06:54:30;;;;;;;;;;;;;;;;;;5091754;28;19967;-69
2023/12/29 06:56:57;;;;;;;;;;;;;;;;;;5086365;28;19950;-70
2023/12/29 06:59:24;;;;;;;;;;;;;;;;;;5089234;28;19928;-70
2023/12/29 07:01:51;;;;;;;;;;;;;;;;;;5086189;28;19978;-70
2023/12/29 07:04:18;;;;;;;;;;;;;;;;;;5086226;28;19924;-71
2023/12/29 07:06:46;;;;;;;;;;;;;;;;;;5079851;28;19951;-73
2023/12/29 07:09:13;;;;;;;;;;;;;;;;;;5085201;28;21862;-70
2023/12/29 07:11:40;;;;;;;;;;;;;;;;;;5087063;28;20353;-70
2023/12/29 07:14:07;;;;;;;;;;;;;;;;;;5089099;28;19931;-70
2023/12/29 07:16:34;;;;;;;;;;;;;;;;;;5079810;28;19924;-70
2023/12/29 07:19:01;;;;;;;;;;;;;;;;;;5091500;28;19977;-70
2023/12/29 07:21:28;;;;;;;;;;;;;;;;;;5091104;28;20738;-70
2023/12/29 07:23:55;;;;;;;;;;;;;;;;;;5092964;28;19928;-71
2023/12/29 07:26:22;;;;;;;;;;;;;;;;;;5086472;28;19924;-70
2023/12/29 07:28:53;;;;;;;;;;;;;;;;;;5091102;28;19932;-70
2023/12/29 07:31:22;;;;;;;;;;;;;;;;;;5083456;28;20277;-70
2023/12/29 07:33:49;;;;;;;;;;;;;;;;;;5075728;28;20390;-69
2023/12/29 07:36:16;;;;;;;;;;;;;;;;;;5079378;28;19931;-69
2023/12/29 07:38:43;;;;;;;;;;;;;;;;;;5080986;28;19925;-69
2023/12/29 07:41:10;;;;;;;;;;;;;;;;;;5087106;28;19928;-69
2023/12/29 07:43:37;;;;;;;;;;;;;;;;;;5086688;28;20006;-70
2023/12/29 07:46:04;;;;;;;;;;;;;;;;;;5086384;28;19963;-69
2023/12/29 07:48:32;;;;;;;;;;;;;;;;;;5080443;28;19973;-69
2023/12/29 07:50:59;;;;;;;;;;;;;;;;;;5089733;28;19931;-69
2023/12/29 07:53:26;;;;;;;;;;;;;;;;;;5087708;28;19928;-70
2023/12/29 07:55:54;;;;;;;;;;;;;;;;;;5088737;28;19969;-70
2023/12/29 07:58:21;;;;;;;;;;;;;;;;;;5083714;28;20383;-69
2023/12/29 08:00:48;;;;;;;;;;;;;;;;;;5079400;28;19939;-70
2023/12/29 08:03:16;;;;;;;;;;;;;;;;;;5091380;28;19928;-68
2023/12/29 08:05:43;;;;;;;;;;;;;;;;;;5086081;28;19924;-70
2023/12/29 08:08:10;;;;;;;;;;;;;;;;;;5090537;28;19931;-69
2023/12/29 08:10:37;;;;;;;;;;;;;;;;;;5089790;28;20389;-70
2023/12/29 08:13:04;;;;;;;;;;;;;;;;;;5085192;28;20356;-69
2023/12/29 08:15:31;;;;;;;;;;;;;;;;;;5082225;28;19924;-68
2023/12/29 08:17:58;;;;;;;;;;;;;;;;;;5088918;28;19988;-68
2023/12/29 08:20:25;;;;;;;;;;;;;;;;;;5078846;28;19928;-68
2023/12/29 08:22:52;;;;;;;;;;;;;;;;;;5088806;28;19924;-68
2023/12/29 08:25:19;;;;;;;;;;;;;;;;;;5087248;28;19924;-68
2023/12/29 08:27:46;;;;;;;;;;;;;;;;;;5089813;28;20294;-68
2023/12/29 08:30:13;;;;;;;;;;;;;;;;;;5088732;28;19936;-69
2023/12/29 08:32:40;;;;;;;;;;;;;;;;;;5085610;28;20171;-68
2023/12/29 08:35:07;;;;;;;;;;;;;;;;;;5086698;28;20344;-69
2023/12/29 08:37:35;;;;;;;;;;;;;;;;;;5087900;28;19924;-69
2023/12/29 08:40:02;;;;;;;;;;;;;;;;;;5083879;28;20025;-69
2023/12/29 08:42:29;;;;;;;;;;;;;;;;;;5078247;28;19950;-69
2023/12/29 08:44:56;;;;;;;;;;;;;;;;;;5086670;28;20056;-69
2023/12/29 08:47:23;;;;;;;;;;;;;;;;;;5083075;28;19925;-69
2023/12/29 08:49:51;;;;;;;;;;;;;;;;;;5083831;28;19924;-69
2023/12/29 08:52:18;;;;;;;;;;;;;;;;;;5085010;28;19924;-69
2023/12/29 08:54:45;;;;;;;;;;;;;;;;;;5081982;28;20029;-69
2023/12/29 08:57:12;;;;;;;;;;;;;;;;;;5071176;28;20464;-69
2023/12/29 08:59:39;;;;;;;;;;;;;;;;;;5080919;28;19971;-71
2023/12/29 09:02:06;;;;;;;;;;;;;;;;;;5074160;28;19975;-71
2023/12/29 09:04:33;;;;;;;;;;;;;;;;;;5085545;28;19939;-72
2023/12/29 09:07:00;;;;;;;;;;;;;;;;;;5086966;28;19985;-72
2023/12/29 09:09:27;;;;;;;;;;;;;;;;;;5084138;28;19928;-72
2023/12/29 09:11:54;;;;;;;;;;;;;;;;;;5081620;28;20044;-68
2023/12/29 09:14:21;;;;;;;;;;;;;;;;;;5081292;28;20028;-69
2023/12/29 09:16:51;;;;;;;;;;;;;;;;;;5083323;28;19925;-66
2023/12/29 09:19:18;;;;;;;;;;;;;;;;;;5084132;28;20335;-67
2023/12/29 09:21:46;;;;;;;;;;;;;;;;;;5084288;28;19977;-69
2023/12/29 09:24:13;;;;;;;;;;;;;;;;;;5087519;28;19931;-68
2023/12/29 09:26:40;;;;;;;;;;;;;;;;;;5087354;28;19935;-67
2023/12/29 09:29:07;;;;;;;;;;;;;;;;;;5087046;28;20457;-68
2023/12/29 09:31:34;;;;;;;;;;;;;;;;;;5079025;28;19924;-70
2023/12/29 09:34:02;;;;;;;;;;;;;;;;;;5088624;28;19924;-69
2023/12/29 09:36:30;;;;;;;;;;;;;;;;;;5092537;28;19924;-69
2023/12/29 09:38:57;;;;;;;;;;;;;;;;;;5088369;28;19925;-68
2023/12/29 09:41:24;;;;;;;;;;;;;;;;;;5090121;28;19924;-68
2023/12/29 09:43:51;;;;;;;;;;;;;;;;;;5083237;28;19967;-66
2023/12/29 09:46:19;;;;;;;;;;;;;;;;;;5082125;28;20403;-69
2023/12/29 09:48:46;;;;;;;;;;;;;;;;;;5086163;28;20011;-68
2023/12/29 09:51:13;;;;;;;;;;;;;;;;;;5086486;28;20411;-68
2023/12/29 09:53:40;;;;;;;;;;;;;;;;;;5082322;28;19985;-67
2023/12/29 09:56:07;;;;;;;;;;;;;;;;;;5089653;28;19971;-72
2023/12/29 09:58:34;;;;;;;;;;;;;;;;;;5087547;28;19923;-71
2023/12/29 10:01:01;;;;;;;;;;;;;;;;;;5088176;28;20017;-69
2023/12/29 10:03:28;;;;;;;;;;;;;;;;;;5079742;28;19939;-70
2023/12/29 10:05:56;;;;;;;;;;;;;;;;;;5075274;28;19967;-69
2023/12/29 10:08:23;;;;;;;;;;;;;;;;;;5075216;28;19925;-69
2023/12/29 10:10:50;;;;;;;;;;;;;;;;;;5083480;28;19985;-69
2023/12/29 10:13:18;;;;;;;;;;;;;;;;;;5090231;28;19930;-69
2023/12/29 10:15:45;;;;;;;;;;;;;;;;;;5083789;28;19924;-67
2023/12/29 10:18:12;;;;;;;;;;;;;;;;;;5084282;28;20423;-66
2023/12/29 10:20:39;;;;;;;;;;;;;;;;;;5089094;28;19977;-69
2023/12/29 10:23:05;;;;;;;;;;;;;;;;;;5091374;28;19924;-69
2023/12/29 10:25:32;;;;;;;;;;;;;;;;;;5087013;28;19939;-70
2023/12/29 10:27:59;;;;;;;;;;;;;;;;;;5081140;28;19931;-69
2023/12/29 10:30:26;;;;;;;;;;;;;;;;;;5078167;28;19939;-69
2023/12/29 10:32:53;;;;;;;;;;;;;;;;;;5084668;28;19924;-68
2023/12/29 10:35:20;;;;;;;;;;;;;;;;;;5086367;28;19963;-68
2023/12/29 10:37:48;;;;;;;;;;;;;;;;;;5083797;28;20448;-68
2023/12/29 10:40:15;;;;;;;;;;;;;;;;;;5081021;28;20296;-68
2023/12/29 10:42:42;;;;;;;;;;;;;;;;;;5079266;28;19925;-69
2023/12/29 10:45:09;;;;;;;;;;;;;;;;;;5080747;28;20398;-69
2023/12/29 10:47:36;;;;;;;;;;;;;;;;;;5079948;28;20013;-69
2023/12/29 10:50:04;;;;;;;;;;;;;;;;;;5078920;28;20061;-69
2023/12/29 10:52:31;;;;;;;;;;;;;;;;;;5077523;28;19930;-69
2023/12/29 10:54:58;;;;;;;;;;;;;;;;;;5079656;28;20054;-69
2023/12/29 10:57:25;;;;;;;;;;;;;;;;;;5076045;28;20424;-67
2023/12/29 10:59:52;;;;;;;;;;;;;;;;;;5078539;28;19992;-67
2023/12/29 11:02:19;;;;;;;;;;;;;;;;;;5075046;28;19925;-68
2023/12/29 11:04:46;;;;;;;;;;;;;;;;;;5072754;28;19924;-68
2023/12/29 11:07:13;;;;;;;;;;;;;;;;;;5073358;28;19963;-68
2023/12/29 11:09:40;;;;;;;;;;;;;;;;;;5082505;28;20015;-68
2023/12/29 11:12:07;;;;;;;;;;;;;;;;;;5079321;28;19925;-68
2023/12/29 11:14:35;;;;;;;;;;;;;;;;;;5080534;28;19924;-68
2023/12/29 11:17:03;;;;;;;;;;;;;;;;;;5079286;28;19982;-68
2023/12/29 11:19:31;;;;;;;;;;;;;;;;;;5078973;28;19932;-68
2023/12/29 11:21:58;;;;;;;;;;;;;;;;;;5078702;28;20029;-68
2023/12/29 11:24:25;;;;;;;;;;;;;;;;;;5079411;28;19932;-68
2023/12/29 11:26:52;;;;;;;;;;;;;;;;;;5075485;28;19939;-69
2023/12/29 11:29:19;;;;;;;;;;;;;;;;;;5070935;28;19933;-69
2023/12/29 11:31:48;;;;;;;;;;;;;;;;;;5076578;28;19932;-69
2023/12/29 11:34:15;;;;;;;;;;;;;;;;;;5081524;28;19970;-69
2023/12/29 11:36:42;;;;;;;;;;;;;;;;;;5075177;28;19924;-70
2023/12/29 11:39:10;;;;;;;;;;;;;;;;;;5077388;28;19967;-68
2023/12/29 11:41:37;;;;;;;;;;;;;;;;;;5084704;28;19928;-69
2023/12/29 11:44:04;;;;;;;;;;;;;;;;;;5083538;28;20352;-69
2023/12/29 11:46:31;;;;;;;;;;;;;;;;;;5080299;28;19983;-68
2023/12/29 11:49:03;;;;;;;;;;;;;;;;;;5078829;28;19932;-68
2023/12/29 11:51:30;;;;;;;;;;;;;;;;;;5087838;28;20286;-68
2023/12/29 11:53:57;;;;;;;;;;;;;;;;;;5079485;28;20341;-68
2023/12/29 11:56:24;;;;;;;;;;;;;;;;;;5089869;28;19924;-68
2023/12/29 11:58:51;;;;;;;;;;;;;;;;;;5088998;28;19936;-68
2023/12/29 12:01:18;;;;;;;;;;;;;;;;;;5077338;28;20382;-68
2023/12/29 12:03:46;;;;;;;;;;;;;;;;;;5088652;28;19977;-68
2023/12/29 12:06:13;;;;;;;;;;;;;;;;;;5085571;28;19931;-69
2023/12/29 12:08:39;;;;;;;;;;;;;;;;;;5086799;28;19953;-69
2023/12/29 12:11:06;;;;;;;;;;;;;;;;;;5084415;28;19931;-69
2023/12/29 12:13:34;;;;;;;;;;;;;;;;;;5089725;28;20396;-69
2023/12/29 12:16:01;;;;;;;;;;;;;;;;;;5087675;28;20379;-69
2023/12/29 12:18:28;;;;;;;;;;;;;;;;;;5090047;28;19924;-70
2023/12/29 12:20:55;;;;;;;;;;;;;;;;;;5082798;28;19932;-70
2023/12/29 12:23:22;;;;;;;;;;;;;;;;;;5075278;28;19924;-67
2023/12/29 12:25:49;;;;;;;;;;;;;;;;;;5082936;28;20052;-67
2023/12/29 12:28:16;;;;;;;;;;;;;;;;;;5075957;28;19928;-67
2023/12/29 12:30:43;;;;;;;;;;;;;;;;;;5082017;28;19924;-68
2023/12/29 12:33:13;;;;;;;;;;;;;;;;;;5080845;28;19927;-68
2023/12/29 12:35:40;;;;;;;;;;;;;;;;;;5077745;28;19946;-68
2023/12/29 12:38:08;;;;;;;;;;;;;;;;;;5081587;28;19932;-69
2023/12/29 12:40:35;;;;;;;;;;;;;;;;;;5086092;28;19985;-69
2023/12/29 12:43:03;;;;;;;;;;;;;;;;;;5081885;28;19924;-69
2023/12/29 12:45:30;;;;;;;;;;;;;;;;;;5083020;28;19931;-69
2023/12/29 12:47:57;;;;;;;;;;;;;;;;;;5082949;28;19924;-69
2023/12/29 12:50:24;;;;;;;;;;;;;;;;;;5078879;28;19929;-69
2023/12/29 12:52:52;;;;;;;;;;;;;;;;;;5078979;22;19939;-69
2023/12/29 12:55:19;;;;;;;;;;;;;;;;;;5058145;28;19946;-69
2023/12/29 12:57:46;;;;;;;;;;;;;;;;;;5038450;28;19925;-67
2023/12/29 13:00:13;;;;;;;;;;;;;;;;;;5038762;28;20039;-67
2023/12/29 13:02:40;;;;;;;;;;;;;;;;;;5042465;28;19929;-67
2023/12/29 13:05:08;;;;;;;;;;;;;;;;;;5044156;28;19983;-67
2023/12/29 13:07:35;;;;;;;;;;;;;;;;;;5035066;28;20008;-67
2023/12/29 13:10:03;;;;;;;;;;;;;;;;;;5038891;28;19924;-67
2023/12/29 13:12:30;;;;;;;;;;;;;;;;;;5040718;28;19925;-68
2023/12/29 13:14:57;;;;;;;;;;;;;;;;;;5037508;28;19936;-68
2023/12/29 13:17:25;;;;;;;;;;;;;;;;;;5034498;28;20012;-68
2023/12/29 13:19:52;;;;;;;;;;;;;;;;;;5043626;28;19936;-68
2023/12/29 13:22:20;;;;;;;;;;;;;;;;;;5047009;28;19971;-68
2023/12/29 13:24:47;;;;;;;;;;;;;;;;;;5038816;28;20328;-68
2023/12/29 13:27:15;;;;;;;;;;;;;;;;;;5038787;28;20814;-68
2023/12/29 13:29:43;;;;;;;;;;;;;;;;;;5037476;28;19999;-68
2023/12/29 13:32:10;;;;;;;;;;;;;;;;;;5036100;28;19965;-68
2023/12/29 13:34:37;;;;;;;;;;;;;;;;;;5043329;28;19933;-68
2023/12/29 13:37:04;;;;;;;;;;;;;;;;;;5048325;28;19924;-68
2023/12/29 13:39:31;;;;;;;;;;;;;;;;;;5046366;28;19925;-68
2023/12/29 13:41:58;;;;;;;;;;;;;;;;;;5049517;28;19932;-68
2023/12/29 13:44:26;;;;;;;;;;;;;;;;;;5042901;28;20012;-67
2023/12/29 13:46:53;;;;;;;;;;;;;;;;;;5038131;28;19935;-68
2023/12/29 13:49:20;;;;;;;;;;;;;;;;;;5047291;28;19928;-68
2023/12/29 13:51:47;;;;;;;;;;;;;;;;;;5037583;28;19956;-68
2023/12/29 13:54:14;;;;;;;;;;;;;;;;;;5041802;28;20028;-68
2023/12/29 13:56:41;;;;;;;;;;;;;;;;;;5049383;28;19924;-68
2023/12/29 13:59:08;;;;;;;;;;;;;;;;;;5044885;28;19956;-70
2023/12/29 14:01:35;;;;;;;;;;;;;;;;;;5046652;28;20403;-68
2023/12/29 14:04:02;;;;;;;;;;;;;;;;;;5043254;28;19948;-69
2023/12/29 14:06:30;;;;;;;;;;;;;;;;;;5050163;28;19925;-70
2023/12/29 14:08:57;;;;;;;;;;;;;;;;;;5048284;28;19929;-69
2023/12/29 14:11:24;;;;;;;;;;;;;;;;;;5043823;28;20461;-71
2023/12/29 14:13:51;;;;;;;;;;;;;;;;;;5043974;28;20909;-71
2023/12/29 14:16:20;;;;;;;;;;;;;;;;;;5040256;28;20097;-71
2023/12/29 14:18:47;;;;;;;;;;;;;;;;;;5047282;28;19939;-71
2023/12/29 14:21:14;;;;;;;;;;;;;;;;;;5040019;28;19933;-69
2023/12/29 14:23:41;;;;;;;;;;;;;;;;;;5035088;28;19983;-70
2023/12/29 14:26:08;;;;;;;;;;;;;;;;;;5033821;28;19936;-69
2023/12/29 14:28:35;;;;;;;;;;;;;;;;;;5033581;28;19997;-69
2023/12/29 14:31:03;;;;;;;;;;;;;;;;;;5041764;28;19929;-70
2023/12/29 14:33:30;;;;;;;;;;;;;;;;;;5041224;28;19925;-70
2023/12/29 14:35:56;;;;;;;;;;;;;;;;;;5036496;28;20050;-69
2023/12/29 14:38:24;;;;;;;;;;;;;;;;;;5045211;28;19925;-70
2023/12/29 14:40:51;;;;;;;;;;;;;;;;;;5041538;28;20015;-70
2023/12/29 14:43:18;;;;;;;;;;;;;;;;;;5040503;28;19925;-69
2023/12/29 14:45:46;;;;;;;;;;;;;;;;;;5039472;28;20368;-70
2023/12/29 14:48:13;;;;;;;;;;;;;;;;;;5043155;28;19925;-70
2023/12/29 14:50:45;;;;;;;;;;;;;;;;;;5034110;28;20380;-69
2023/12/29 14:53:12;;;;;;;;;;;;;;;;;;5046392;28;19967;-70
2023/12/29 14:55:39;;;;;;;;;;;;;;;;;;5050289;28;19929;-68
2023/12/29 14:58:06;;;;;;;;;;;;;;;;;;5046494;28;19929;-69
2023/12/29 15:00:33;;;;;;;;;;;;;;;;;;5037992;28;19933;-69
2023/12/29 15:03:00;;;;;;;;;;;;;;;;;;5042821;28;19936;-67
2023/12/29 15:05:28;;;;;;;;;;;;;;;;;;5043979;28;19987;-67
2023/12/29 15:07:55;;;;;;;;;;;;;;;;;;5038898;28;20388;-67
2023/12/29 15:10:22;;;;;;;;;;;;;;;;;;5049272;28;19983;-67
2023/12/29 15:12:49;;;;;;;;;;;;;;;;;;5046501;28;20292;-67
2023/12/29 15:15:16;;;;;;;;;;;;;;;;;;5048248;28;20339;-67
2023/12/29 15:17:43;;;;;;;;;;;;;;;;;;5044660;28;20438;-69
2023/12/29 15:20:11;;;;;;;;;;;;;;;;;;5042098;28;19928;-69
2023/12/29 15:22:38;;;;;;;;;;;;;;;;;;5038913;28;19929;-69
2023/12/29 15:25:05;;;;;;;;;;;;;;;;;;5046940;28;19925;-69
2023/12/29 15:27:32;;;;;;;;;;;;;;;;;;5043567;28;20001;-69
2023/12/29 15:30:00;;;;;;;;;;;;;;;;;;5048853;28;19970;-69
2023/12/29 15:32:27;;;;;;;;;;;;;;;;;;5037953;28;19996;-69
2023/12/29 15:34:54;;;;;;;;;;;;;;;;;;5034590;28;19933;-69
2023/12/29 15:37:21;;;;;;;;;;;;;;;;;;5040856;28;19941;-68
2023/12/29 15:39:48;;;;;;;;;;;;;;;;;;5046862;28;19925;-68
2023/12/29 15:42:15;;;;;;;;;;;;;;;;;;5041070;28;20007;-70
2023/12/29 15:44:42;;;;;;;;;;;;;;;;;;5037730;28;20388;-68
2023/12/29 15:47:09;;;;;;;;;;;;;;;;;;5038541;28;19929;-68
2023/12/29 15:49:36;;;;;;;;;;;;;;;;;;5044781;28;19925;-69
2023/12/29 15:52:03;;;;;;;;;;;;;;;;;;5040623;28;19979;-68
2023/12/29 15:54:32;;;;;;;;;;;;;;;;;;5036392;28;19929;-68
2023/12/29 15:56:59;;;;;;;;;;;;;;;;;;5035802;28;19936;-69
2023/12/29 15:59:26;;;;;;;;;;;;;;;;;;5041880;28;19924;-69
2023/12/29 16:01:53;;;;;;;;;;;;;;;;;;5041927;28;19924;-69
2023/12/29 16:04:20;;;;;;;;;;;;;;;;;;5044498;28;19933;-68
2023/12/29 16:06:47;;;;;;;;;;;;;;;;;;5037152;28;19932;-69
2023/12/29 16:09:14;;;;;;;;;;;;;;;;;;5036128;28;20344;-69
2023/12/29 16:11:41;;;;;;;;;;;;;;;;;;5043524;28;19925;-69
2023/12/29 16:14:09;;;;;;;;;;;;;;;;;;5035454;28;19925;-69
2023/12/29 16:16:36;;;;;;;;;;;;;;;;;;5037021;28;19931;-68
2023/12/29 16:19:03;;;;;;;;;;;;;;;;;;5041116;28;19924;-70
2023/12/29 16:21:30;;;;;;;;;;;;;;;;;;5035431;28;19929;-68
2023/12/29 16:23:57;;;;;;;;;;;;;;;;;;5033652;28;19929;-69
2023/12/29 16:26:25;;;;;;;;;;;;;;;;;;5039181;28;20404;-68
2023/12/29 16:28:52;;;;;;;;;;;;;;;;;;5039733;28;19956;-68
2023/12/29 16:31:19;;;;;;;;;;;;;;;;;;5039501;28;19987;-68
2023/12/29 16:33:46;;;;;;;;;;;;;;;;;;5040922;28;19929;-68
2023/12/29 16:36:13;;;;;;;;;;;;;;;;;;5037643;28;20308;-68
2023/12/29 16:38:40;;;;;;;;;;;;;;;;;;5035434;28;20501;-68
2023/12/29 16:41:07;;;;;;;;;;;;;;;;;;5034430;28;19987;-69
2023/12/29 16:43:34;;;;;;;;;;;;;;;;;;5037771;28;19968;-68
2023/12/29 16:46:01;;;;;;;;;;;;;;;;;;5041436;28;19933;-69